This is the latest recevied weather packets stored in our database for station/object SR8WXB-1. If no packets are shown the sender has not sent any weather packets the latest 1 day(s).
| Time | Temp. | Humidity | Pressure | Rain* | Wind** | Luminosity | Snow |
|---|---|---|---|---|---|---|---|
| 1777993559 | 21.67° C | 100% | 939.5 hPa | - | 11.62 m/s, 242° | - | - |
| 1777993319 | 22.22° C | 100% | 939.5 hPa | - | 13.41 m/s, 245° | - | - |
| 1777993076 | 22.22° C | 100% | 939.5 hPa | - | 8.49 m/s, 241° | - | - |
| 1777992837 | 22.22° C | 100% | 939.5 hPa | - | 9.83 m/s, 243° | - | - |
| 1777992597 | 22.22° C | 100% | 939.5 hPa | - | 9.39 m/s, 244° | - | - |
| 1777992353 | 22.22° C | 100% | 939.6 hPa | - | 13.41 m/s, 244° | - | - |
| 1777992114 | 21.67° C | 100% | 939.6 hPa | - | 8.94 m/s, 239° | - | - |
| 1777991871 | 21.67° C | 100% | 939.6 hPa | - | 10.28 m/s, 243° | - | - |
| 1777991631 | 21.67° C | 100% | 939.6 hPa | - | 14.75 m/s, 245° | - | - |
| 1777991391 | 21.67° C | 100% | 939.7 hPa | - | 13.41 m/s, 245° | - | - |
| 1777991151 | 21.67° C | 100% | 939.7 hPa | - | 15.65 m/s, 248° | - | - |
| 1777990911 | 22.22° C | 100% | 939.7 hPa | - | 14.31 m/s, 244° | - | - |
| 1777990668 | 22.22° C | 100% | 939.7 hPa | - | 12.52 m/s, 247° | - | - |
| 1777990428 | 22.22° C | 100% | 939.7 hPa | - | 11.18 m/s, 248° | - | - |
| 1777990188 | 22.22° C | 100% | 939.8 hPa | - | 12.07 m/s, 248° | - | - |
| 1777989948 | 22.22° C | 100% | 939.8 hPa | - | 12.07 m/s, 250° | - | - |
| 1777989708 | 22.22° C | 100% | 939.8 hPa | - | 12.96 m/s, 247° | - | - |
| 1777989465 | 22.78° C | 100% | 939.8 hPa | - | 13.41 m/s, 246° | - | - |
| 1777989225 | 22.78° C | 100% | 939.8 hPa | - | 11.62 m/s, 245° | - | - |
| 1777988985 | 22.22° C | 100% | 939.9 hPa | - | 11.62 m/s, 244° | - | - |
| 1777988745 | 22.22° C | 100% | 940 hPa | - | 11.62 m/s, 243° | - | - |
| 1777988505 | 22.78° C | 100% | 940 hPa | - | 12.52 m/s, 242° | - | - |
| 1777988251 | 23.33° C | 100% | 940 hPa | - | 8.94 m/s, 241° | - | - |
| 1777988011 | 23.33° C | 100% | 940 hPa | - | 11.62 m/s, 242° | - | - |
| 1777987531 | 23.33° C | 100% | 940.1 hPa | - | 9.83 m/s, 243° | - | - |
* Rain since midnight (hover to see other rain measurements)
** Current wind speed in m/s (hover to see current wind gust speed)